sensor_id;sensor_type;location;lat;lon;timestamp;P1;durP1;ratioP1;P2;durP2;ratioP2
28988;SDS011;16089;59.952;10.818;2022-07-22T00:00:55;9.02;;;6.82;;
28988;SDS011;16089;59.952;10.818;2022-07-22T00:03:21;9.82;;;6.93;;
28988;SDS011;16089;59.952;10.818;2022-07-22T00:05:47;8.82;;;6.82;;
28988;SDS011;16089;59.952;10.818;2022-07-22T00:08:14;10.07;;;6.50;;
28988;SDS011;16089;59.952;10.818;2022-07-22T00:10:40;9.45;;;6.95;;
28988;SDS011;16089;59.952;10.818;2022-07-22T00:13:08;9.23;;;6.15;;
28988;SDS011;16089;59.952;10.818;2022-07-22T00:15:34;10.15;;;6.32;;
28988;SDS011;16089;59.952;10.818;2022-07-22T00:18:01;7.70;;;6.22;;
28988;SDS011;16089;59.952;10.818;2022-07-22T00:20:27;10.27;;;6.40;;
28988;SDS011;16089;59.952;10.818;2022-07-22T00:22:53;8.52;;;6.60;;
28988;SDS011;16089;59.952;10.818;2022-07-22T00:25:20;7.00;;;5.97;;
28988;SDS011;16089;59.952;10.818;2022-07-22T00:27:46;7.32;;;5.80;;
28988;SDS011;16089;59.952;10.818;2022-07-22T00:30:14;7.82;;;6.22;;
28988;SDS011;16089;59.952;10.818;2022-07-22T00:32:40;6.50;;;5.50;;
28988;SDS011;16089;59.952;10.818;2022-07-22T00:35:07;8.35;;;5.95;;
28988;SDS011;16089;59.952;10.818;2022-07-22T00:37:34;9.63;;;6.18;;
28988;SDS011;16089;59.952;10.818;2022-07-22T00:40:00;9.27;;;6.50;;
28988;SDS011;16089;59.952;10.818;2022-07-22T00:42:26;7.47;;;6.28;;
28988;SDS011;16089;59.952;10.818;2022-07-22T00:44:53;8.07;;;6.07;;
28988;SDS011;16089;59.952;10.818;2022-07-22T00:47:21;9.82;;;6.88;;
28988;SDS011;16089;59.952;10.818;2022-07-22T00:49:47;7.65;;;6.53;;
28988;SDS011;16089;59.952;10.818;2022-07-22T00:52:13;11.40;;;8.20;;
28988;SDS011;16089;59.952;10.818;2022-07-22T00:54:40;9.20;;;7.50;;
28988;SDS011;16089;59.952;10.818;2022-07-22T00:57:06;8.52;;;7.32;;
28988;SDS011;16089;59.952;10.818;2022-07-22T00:59:33;9.00;;;7.43;;
28988;SDS011;16089;59.952;10.818;2022-07-22T01:01:59;8.65;;;6.97;;
28988;SDS011;16089;59.952;10.818;2022-07-22T01:04:27;11.23;;;7.43;;
28988;SDS011;16089;59.952;10.818;2022-07-22T01:06:53;9.60;;;8.05;;
28988;SDS011;16089;59.952;10.818;2022-07-22T01:09:19;8.38;;;7.43;;
28988;SDS011;16089;59.952;10.818;2022-07-22T01:11:46;8.38;;;7.05;;
28988;SDS011;16089;59.952;10.818;2022-07-22T01:14:12;12.52;;;7.45;;
28988;SDS011;16089;59.952;10.818;2022-07-22T01:16:39;10.18;;;6.50;;
28988;SDS011;16089;59.952;10.818;2022-07-22T01:19:05;7.35;;;5.63;;
28988;SDS011;16089;59.952;10.818;2022-07-22T01:21:33;12.25;;;6.03;;
28988;SDS011;16089;59.952;10.818;2022-07-22T01:23:59;6.20;;;4.90;;
28988;SDS011;16089;59.952;10.818;2022-07-22T01:26:26;8.93;;;5.30;;
28988;SDS011;16089;59.952;10.818;2022-07-22T01:28:52;5.72;;;4.38;;
28988;SDS011;16089;59.952;10.818;2022-07-22T01:31:19;5.53;;;4.40;;
28988;SDS011;16089;59.952;10.818;2022-07-22T01:33:45;5.82;;;3.88;;
28988;SDS011;16089;59.952;10.818;2022-07-22T01:36:11;8.80;;;4.05;;
28988;SDS011;16089;59.952;10.818;2022-07-22T01:38:39;6.90;;;3.85;;
28988;SDS011;16089;59.952;10.818;2022-07-22T01:41:05;5.80;;;3.75;;
28988;SDS011;16089;59.952;10.818;2022-07-22T01:43:33;5.07;;;3.58;;
28988;SDS011;16089;59.952;10.818;2022-07-22T01:45:59;4.85;;;3.90;;
28988;SDS011;16089;59.952;10.818;2022-07-22T01:48:25;5.88;;;4.00;;
28988;SDS011;16089;59.952;10.818;2022-07-22T01:50:52;5.03;;;3.80;;
28988;SDS011;16089;59.952;10.818;2022-07-22T01:53:18;6.45;;;3.65;;
28988;SDS011;16089;59.952;10.818;2022-07-22T01:55:46;5.70;;;4.00;;
28988;SDS011;16089;59.952;10.818;2022-07-22T01:58:12;6.90;;;4.05;;
28988;SDS011;16089;59.952;10.818;2022-07-22T02:00:39;6.90;;;3.65;;
28988;SDS011;16089;59.952;10.818;2022-07-22T02:03:05;4.47;;;3.60;;
28988;SDS011;16089;59.952;10.818;2022-07-22T02:05:32;5.63;;;3.80;;
28988;SDS011;16089;59.952;10.818;2022-07-22T02:07:59;4.63;;;3.67;;
28988;SDS011;16089;59.952;10.818;2022-07-22T02:10:26;4.75;;;3.75;;
28988;SDS011;16089;59.952;10.818;2022-07-22T02:12:53;5.65;;;3.80;;
28988;SDS011;16089;59.952;10.818;2022-07-22T02:15:20;6.95;;;4.00;;
28988;SDS011;16089;59.952;10.818;2022-07-22T02:17:46;6.97;;;4.07;;
28988;SDS011;16089;59.952;10.818;2022-07-22T02:20:12;5.68;;;3.92;;
28988;SDS011;16089;59.952;10.818;2022-07-22T02:22:39;5.55;;;4.00;;
28988;SDS011;16089;59.952;10.818;2022-07-22T02:25:06;5.32;;;3.72;;
28988;SDS011;16089;59.952;10.818;2022-07-22T02:27:32;5.63;;;3.55;;
28988;SDS011;16089;59.952;10.818;2022-07-22T02:30:00;7.10;;;3.92;;
28988;SDS011;16089;59.952;10.818;2022-07-22T02:32:26;4.65;;;3.72;;
28988;SDS011;16089;59.952;10.818;2022-07-22T02:34:53;8.55;;;3.67;;
28988;SDS011;16089;59.952;10.818;2022-07-22T02:37:19;5.10;;;3.80;;
28988;SDS011;16089;59.952;10.818;2022-07-22T02:39:46;5.85;;;4.10;;
28988;SDS011;16089;59.952;10.818;2022-07-22T02:42:12;6.15;;;3.47;;
28988;SDS011;16089;59.952;10.818;2022-07-22T02:44:38;5.93;;;3.30;;
28988;SDS011;16089;59.952;10.818;2022-07-22T02:47:06;5.15;;;3.65;;
28988;SDS011;16089;59.952;10.818;2022-07-22T02:49:33;5.18;;;3.60;;
28988;SDS011;16089;59.952;10.818;2022-07-22T02:51:59;4.10;;;3.17;;
28988;SDS011;16089;59.952;10.818;2022-07-22T02:54:25;6.25;;;3.30;;
28988;SDS011;16089;59.952;10.818;2022-07-22T02:56:52;4.38;;;3.20;;
28988;SDS011;16089;59.952;10.818;2022-07-22T02:59:18;4.68;;;3.20;;
28988;SDS011;16089;59.952;10.818;2022-07-22T03:01:44;4.13;;;3.25;;
28988;SDS011;16089;59.952;10.818;2022-07-22T03:04:12;5.97;;;3.50;;
28988;SDS011;16089;59.952;10.818;2022-07-22T03:06:38;5.43;;;3.35;;
28988;SDS011;16089;59.952;10.818;2022-07-22T03:09:05;4.18;;;3.45;;
28988;SDS011;16089;59.952;10.818;2022-07-22T03:11:31;5.35;;;3.45;;
28988;SDS011;16089;59.952;10.818;2022-07-22T03:13:57;4.50;;;3.50;;
28988;SDS011;16089;59.952;10.818;2022-07-22T03:16:24;6.10;;;3.45;;
28988;SDS011;16089;59.952;10.818;2022-07-22T03:18:50;4.82;;;3.10;;
28988;SDS011;16089;59.952;10.818;2022-07-22T03:21:18;9.45;;;3.75;;
28988;SDS011;16089;59.952;10.818;2022-07-22T03:23:44;3.95;;;3.13;;
28988;SDS011;16089;59.952;10.818;2022-07-22T03:26:10;4.35;;;3.15;;
28988;SDS011;16089;59.952;10.818;2022-07-22T03:28:37;4.35;;;2.90;;
28988;SDS011;16089;59.952;10.818;2022-07-22T03:31:03;5.75;;;3.47;;
28988;SDS011;16089;59.952;10.818;2022-07-22T03:33:30;3.65;;;2.83;;
28988;SDS011;16089;59.952;10.818;2022-07-22T03:35:56;5.63;;;3.08;;
28988;SDS011;16089;59.952;10.818;2022-07-22T03:38:24;4.88;;;3.30;;
28988;SDS011;16089;59.952;10.818;2022-07-22T03:40:50;5.22;;;3.30;;
28988;SDS011;16089;59.952;10.818;2022-07-22T03:43:17;5.50;;;3.25;;
28988;SDS011;16089;59.952;10.818;2022-07-22T03:45:43;5.03;;;2.80;;
28988;SDS011;16089;59.952;10.818;2022-07-22T03:48:10;5.93;;;3.00;;
28988;SDS011;16089;59.952;10.818;2022-07-22T03:50:36;7.40;;;3.15;;
28988;SDS011;16089;59.952;10.818;2022-07-22T03:53:02;3.60;;;2.72;;
28988;SDS011;16089;59.952;10.818;2022-07-22T03:55:30;3.72;;;2.70;;
28988;SDS011;16089;59.952;10.818;2022-07-22T03:57:57;4.05;;;2.50;;
28988;SDS011;16089;59.952;10.818;2022-07-22T04:00:23;4.47;;;2.33;;
28988;SDS011;16089;59.952;10.818;2022-07-22T04:02:49;5.45;;;2.95;;
28988;SDS011;16089;59.952;10.818;2022-07-22T04:05:16;4.00;;;2.60;;
28988;SDS011;16089;59.952;10.818;2022-07-22T04:07:42;3.67;;;2.40;;
28988;SDS011;16089;59.952;10.818;2022-07-22T04:10:09;4.07;;;2.47;;
28988;SDS011;16089;59.952;10.818;2022-07-22T04:12:37;3.88;;;2.30;;
28988;SDS011;16089;59.952;10.818;2022-07-22T04:15:05;3.88;;;2.05;;
28988;SDS011;16089;59.952;10.818;2022-07-22T04:17:32;3.50;;;2.20;;
28988;SDS011;16089;59.952;10.818;2022-07-22T04:19:58;4.20;;;2.30;;
28988;SDS011;16089;59.952;10.818;2022-07-22T04:22:25;4.68;;;2.15;;
28988;SDS011;16089;59.952;10.818;2022-07-22T04:24:52;6.75;;;2.17;;
28988;SDS011;16089;59.952;10.818;2022-07-22T04:27:18;3.88;;;2.17;;
28988;SDS011;16089;59.952;10.818;2022-07-22T04:29:46;3.75;;;2.30;;
28988;SDS011;16089;59.952;10.818;2022-07-22T04:32:12;5.30;;;2.10;;
28988;SDS011;16089;59.952;10.818;2022-07-22T04:34:38;2.80;;;2.05;;
28988;SDS011;16089;59.952;10.818;2022-07-22T04:37:05;4.43;;;2.08;;
28988;SDS011;16089;59.952;10.818;2022-07-22T04:39:31;4.40;;;2.35;;
28988;SDS011;16089;59.952;10.818;2022-07-22T04:41:57;3.78;;;2.25;;
28988;SDS011;16089;59.952;10.818;2022-07-22T04:44:24;4.82;;;2.08;;
28988;SDS011;16089;59.952;10.818;2022-07-22T04:46:51;3.92;;;2.08;;
28988;SDS011;16089;59.952;10.818;2022-07-22T04:49:18;4.35;;;2.25;;
28988;SDS011;16089;59.952;10.818;2022-07-22T04:51:44;3.90;;;1.98;;
28988;SDS011;16089;59.952;10.818;2022-07-22T04:54:11;3.25;;;2.10;;
28988;SDS011;16089;59.952;10.818;2022-07-22T04:56:37;3.72;;;2.30;;
28988;SDS011;16089;59.952;10.818;2022-07-22T04:59:03;3.50;;;2.20;;
28988;SDS011;16089;59.952;10.818;2022-07-22T05:01:30;3.67;;;1.88;;
28988;SDS011;16089;59.952;10.818;2022-07-22T05:03:57;4.15;;;2.20;;
28988;SDS011;16089;59.952;10.818;2022-07-22T05:06:24;3.28;;;2.10;;
28988;SDS011;16089;59.952;10.818;2022-07-22T05:08:50;3.72;;;1.90;;
28988;SDS011;16089;59.952;10.818;2022-07-22T05:11:17;4.03;;;2.15;;
28988;SDS011;16089;59.952;10.818;2022-07-22T05:13:43;3.65;;;2.15;;
28988;SDS011;16089;59.952;10.818;2022-07-22T05:16:10;5.05;;;2.10;;
28988;SDS011;16089;59.952;10.818;2022-07-22T05:18:36;6.10;;;2.03;;
28988;SDS011;16089;59.952;10.818;2022-07-22T05:21:04;3.67;;;1.98;;
28988;SDS011;16089;59.952;10.818;2022-07-22T05:23:31;2.75;;;1.83;;
28988;SDS011;16089;59.952;10.818;2022-07-22T05:25:58;5.05;;;1.90;;
28988;SDS011;16089;59.952;10.818;2022-07-22T05:28:24;2.60;;;1.80;;
28988;SDS011;16089;59.952;10.818;2022-07-22T05:30:50;4.00;;;1.92;;
28988;SDS011;16089;59.952;10.818;2022-07-22T05:33:17;4.18;;;1.75;;
28988;SDS011;16089;59.952;10.818;2022-07-22T05:35:43;5.60;;;2.40;;
28988;SDS011;16089;59.952;10.818;2022-07-22T05:38:11;3.63;;;2.20;;
28988;SDS011;16089;59.952;10.818;2022-07-22T05:40:37;3.90;;;2.00;;
28988;SDS011;16089;59.952;10.818;2022-07-22T05:43:03;2.80;;;1.88;;
28988;SDS011;16089;59.952;10.818;2022-07-22T05:45:30;4.20;;;2.30;;
28988;SDS011;16089;59.952;10.818;2022-07-22T05:47:56;4.25;;;2.00;;
28988;SDS011;16089;59.952;10.818;2022-07-22T05:50:23;4.15;;;1.90;;
28988;SDS011;16089;59.952;10.818;2022-07-22T05:52:49;3.15;;;1.90;;
28988;SDS011;16089;59.952;10.818;2022-07-22T05:55:17;3.25;;;2.10;;
28988;SDS011;16089;59.952;10.818;2022-07-22T05:57:43;3.22;;;1.88;;
28988;SDS011;16089;59.952;10.818;2022-07-22T06:00:10;2.85;;;1.88;;
28988;SDS011;16089;59.952;10.818;2022-07-22T06:02:36;4.35;;;1.88;;
28988;SDS011;16089;59.952;10.818;2022-07-22T06:05:03;3.78;;;2.10;;
28988;SDS011;16089;59.952;10.818;2022-07-22T06:07:29;3.80;;;2.20;;
28988;SDS011;16089;59.952;10.818;2022-07-22T06:09:56;2.92;;;1.90;;
28988;SDS011;16089;59.952;10.818;2022-07-22T06:12:24;3.75;;;1.98;;
28988;SDS011;16089;59.952;10.818;2022-07-22T06:14:50;3.22;;;1.80;;
28988;SDS011;16089;59.952;10.818;2022-07-22T06:17:17;3.78;;;1.95;;
28988;SDS011;16089;59.952;10.818;2022-07-22T06:19:43;3.17;;;1.80;;
28988;SDS011;16089;59.952;10.818;2022-07-22T06:22:09;3.88;;;1.90;;
28988;SDS011;16089;59.952;10.818;2022-07-22T06:24:36;3.40;;;1.98;;
28988;SDS011;16089;59.952;10.818;2022-07-22T06:27:02;4.28;;;2.03;;
28988;SDS011;16089;59.952;10.818;2022-07-22T06:29:30;3.25;;;2.20;;
28988;SDS011;16089;59.952;10.818;2022-07-22T06:31:56;3.35;;;1.83;;
28988;SDS011;16089;59.952;10.818;2022-07-22T06:34:23;3.90;;;1.90;;
28988;SDS011;16089;59.952;10.818;2022-07-22T06:36:49;2.60;;;1.60;;
28988;SDS011;16089;59.952;10.818;2022-07-22T06:39:15;3.50;;;1.83;;
28988;SDS011;16089;59.952;10.818;2022-07-22T06:41:42;4.45;;;1.98;;
28988;SDS011;16089;59.952;10.818;2022-07-22T06:44:08;6.28;;;2.10;;
28988;SDS011;16089;59.952;10.818;2022-07-22T06:46:36;2.83;;;1.83;;
28988;SDS011;16089;59.952;10.818;2022-07-22T06:49:02;4.28;;;2.00;;
28988;SDS011;16089;59.952;10.818;2022-07-22T06:51:29;4.57;;;1.90;;
28988;SDS011;16089;59.952;10.818;2022-07-22T06:53:55;3.83;;;1.70;;
28988;SDS011;16089;59.952;10.818;2022-07-22T06:56:21;7.13;;;2.00;;
28988;SDS011;16089;59.952;10.818;2022-07-22T06:58:48;3.10;;;1.75;;
28988;SDS011;16089;59.952;10.818;2022-07-22T07:01:14;4.82;;;1.88;;
28988;SDS011;16089;59.952;10.818;2022-07-22T07:03:42;3.22;;;2.03;;
28988;SDS011;16089;59.952;10.818;2022-07-22T07:06:09;5.35;;;1.80;;
28988;SDS011;16089;59.952;10.818;2022-07-22T07:08:36;4.90;;;1.90;;
28988;SDS011;16089;59.952;10.818;2022-07-22T07:11:02;8.43;;;3.63;;
28988;SDS011;16089;59.952;10.818;2022-07-22T07:13:29;5.85;;;2.10;;
28988;SDS011;16089;59.952;10.818;2022-07-22T07:15:55;3.33;;;1.95;;
28988;SDS011;16089;59.952;10.818;2022-07-22T07:18:21;3.15;;;1.98;;
28988;SDS011;16089;59.952;10.818;2022-07-22T07:20:49;3.65;;;2.20;;
28988;SDS011;16089;59.952;10.818;2022-07-22T07:23:15;3.53;;;1.80;;
28988;SDS011;16089;59.952;10.818;2022-07-22T07:25:42;3.13;;;1.80;;
28988;SDS011;16089;59.952;10.818;2022-07-22T07:28:08;3.53;;;2.08;;
28988;SDS011;16089;59.952;10.818;2022-07-22T07:30:34;3.78;;;2.00;;
28988;SDS011;16089;59.952;10.818;2022-07-22T07:33:01;3.70;;;2.15;;
28988;SDS011;16089;59.952;10.818;2022-07-22T07:35:27;2.88;;;1.70;;
28988;SDS011;16089;59.952;10.818;2022-07-22T07:37:55;3.45;;;2.17;;
28988;SDS011;16089;59.952;10.818;2022-07-22T07:40:22;3.20;;;1.75;;
28988;SDS011;16089;59.952;10.818;2022-07-22T07:42:48;2.88;;;1.90;;
28988;SDS011;16089;59.952;10.818;2022-07-22T07:45:14;2.97;;;1.70;;
28988;SDS011;16089;59.952;10.818;2022-07-22T07:47:41;3.55;;;1.90;;
28988;SDS011;16089;59.952;10.818;2022-07-22T07:50:08;3.42;;;2.15;;
28988;SDS011;16089;59.952;10.818;2022-07-22T07:52:36;2.88;;;1.90;;
28988;SDS011;16089;59.952;10.818;2022-07-22T07:55:04;4.72;;;1.88;;
28988;SDS011;16089;59.952;10.818;2022-07-22T07:57:31;5.15;;;2.10;;
28988;SDS011;16089;59.952;10.818;2022-07-22T07:59:57;2.80;;;2.08;;
28988;SDS011;16089;59.952;10.818;2022-07-22T08:02:23;5.00;;;2.20;;
28988;SDS011;16089;59.952;10.818;2022-07-22T08:04:50;4.30;;;2.10;;
28988;SDS011;16089;59.952;10.818;2022-07-22T08:07:16;4.00;;;2.20;;
28988;SDS011;16089;59.952;10.818;2022-07-22T08:09:43;5.05;;;2.30;;
28988;SDS011;16089;59.952;10.818;2022-07-22T08:12:10;3.38;;;2.22;;
28988;SDS011;16089;59.952;10.818;2022-07-22T08:14:37;5.72;;;2.70;;
28988;SDS011;16089;59.952;10.818;2022-07-22T08:17:03;4.00;;;2.35;;
28988;SDS011;16089;59.952;10.818;2022-07-22T08:19:29;4.53;;;2.60;;
28988;SDS011;16089;59.952;10.818;2022-07-22T08:21:56;5.43;;;2.80;;
28988;SDS011;16089;59.952;10.818;2022-07-22T08:24:22;5.65;;;2.58;;
28988;SDS011;16089;59.952;10.818;2022-07-22T08:26:49;6.18;;;2.70;;
28988;SDS011;16089;59.952;10.818;2022-07-22T08:29:16;6.43;;;2.80;;
28988;SDS011;16089;59.952;10.818;2022-07-22T08:31:43;5.72;;;2.67;;
28988;SDS011;16089;59.952;10.818;2022-07-22T08:34:09;5.60;;;2.95;;
28988;SDS011;16089;59.952;10.818;2022-07-22T08:36:35;4.80;;;2.42;;
28988;SDS011;16089;59.952;10.818;2022-07-22T08:39:02;6.30;;;2.88;;
28988;SDS011;16089;59.952;10.818;2022-07-22T08:41:29;6.50;;;3.05;;
28988;SDS011;16089;59.952;10.818;2022-07-22T08:43:59;5.55;;;2.60;;
28988;SDS011;16089;59.952;10.818;2022-07-22T08:46:27;5.75;;;2.75;;
28988;SDS011;16089;59.952;10.818;2022-07-22T08:48:53;4.78;;;2.42;;
28988;SDS011;16089;59.952;10.818;2022-07-22T08:51:20;6.03;;;3.08;;
28988;SDS011;16089;59.952;10.818;2022-07-22T08:53:47;3.83;;;2.53;;
28988;SDS011;16089;59.952;10.818;2022-07-22T08:56:13;5.70;;;2.60;;
28988;SDS011;16089;59.952;10.818;2022-07-22T08:58:40;4.43;;;2.58;;
28988;SDS011;16089;59.952;10.818;2022-07-22T09:01:07;3.45;;;2.20;;
28988;SDS011;16089;59.952;10.818;2022-07-22T09:03:43;5.85;;;2.65;;
28988;SDS011;16089;59.952;10.818;2022-07-22T09:06:10;4.85;;;2.72;;
28988;SDS011;16089;59.952;10.818;2022-07-22T09:08:49;4.47;;;2.40;;
28988;SDS011;16089;59.952;10.818;2022-07-22T09:11:16;4.30;;;2.20;;
28988;SDS011;16089;59.952;10.818;2022-07-22T09:13:42;6.05;;;2.50;;
28988;SDS011;16089;59.952;10.818;2022-07-22T09:16:09;5.63;;;2.65;;
28988;SDS011;16089;59.952;10.818;2022-07-22T09:18:45;4.88;;;2.83;;
28988;SDS011;16089;59.952;10.818;2022-07-22T09:21:12;3.53;;;2.38;;
28988;SDS011;16089;59.952;10.818;2022-07-22T09:23:39;5.07;;;2.85;;
28988;SDS011;16089;59.952;10.818;2022-07-22T09:26:06;4.45;;;2.60;;
28988;SDS011;16089;59.952;10.818;2022-07-22T09:28:33;4.68;;;2.72;;
28988;SDS011;16089;59.952;10.818;2022-07-22T09:30:59;3.50;;;2.50;;
28988;SDS011;16089;59.952;10.818;2022-07-22T09:33:25;5.70;;;2.60;;
28988;SDS011;16089;59.952;10.818;2022-07-22T09:36:00;3.60;;;2.28;;
28988;SDS011;16089;59.952;10.818;2022-07-22T09:38:27;3.72;;;2.42;;
28988;SDS011;16089;59.952;10.818;2022-07-22T09:40:54;4.15;;;2.60;;
28988;SDS011;16089;59.952;10.818;2022-07-22T09:43:21;3.63;;;2.53;;
28988;SDS011;16089;59.952;10.818;2022-07-22T09:45:48;3.78;;;2.53;;
28988;SDS011;16089;59.952;10.818;2022-07-22T09:48:15;4.22;;;2.17;;
28988;SDS011;16089;59.952;10.818;2022-07-22T09:50:43;6.57;;;4.45;;
28988;SDS011;16089;59.952;10.818;2022-07-22T09:53:11;5.05;;;3.20;;
28988;SDS011;16089;59.952;10.818;2022-07-22T09:55:38;5.80;;;2.75;;
28988;SDS011;16089;59.952;10.818;2022-07-22T09:58:05;4.20;;;2.42;;
28988;SDS011;16089;59.952;10.818;2022-07-22T10:00:32;3.65;;;2.40;;
28988;SDS011;16089;59.952;10.818;2022-07-22T10:02:59;5.65;;;2.90;;
28988;SDS011;16089;59.952;10.818;2022-07-22T10:05:27;5.70;;;2.67;;
28988;SDS011;16089;59.952;10.818;2022-07-22T10:07:54;4.82;;;2.63;;
28988;SDS011;16089;59.952;10.818;2022-07-22T10:10:24;4.30;;;2.50;;
28988;SDS011;16089;59.952;10.818;2022-07-22T10:12:51;7.95;;;6.38;;
28988;SDS011;16089;59.952;10.818;2022-07-22T10:15:18;5.65;;;2.80;;
28988;SDS011;16089;59.952;10.818;2022-07-22T10:17:46;3.45;;;2.33;;
28988;SDS011;16089;59.952;10.818;2022-07-22T10:20:16;4.65;;;2.60;;
28988;SDS011;16089;59.952;10.818;2022-07-22T10:22:52;6.50;;;3.15;;
28988;SDS011;16089;59.952;10.818;2022-07-22T10:25:19;6.43;;;3.53;;
28988;SDS011;16089;59.952;10.818;2022-07-22T10:27:48;4.57;;;2.90;;
28988;SDS011;16089;59.952;10.818;2022-07-22T10:30:15;3.83;;;2.70;;
28988;SDS011;16089;59.952;10.818;2022-07-22T10:32:42;4.30;;;2.58;;
28988;SDS011;16089;59.952;10.818;2022-07-22T10:35:22;4.18;;;2.90;;
28988;SDS011;16089;59.952;10.818;2022-07-22T10:37:51;4.53;;;2.60;;
28988;SDS011;16089;59.952;10.818;2022-07-22T10:40:18;4.38;;;2.58;;
28988;SDS011;16089;59.952;10.818;2022-07-22T10:45:47;4.90;;;2.35;;
28988;SDS011;16089;59.952;10.818;2022-07-22T10:48:15;5.38;;;2.50;;
28988;SDS011;16089;59.952;10.818;2022-07-22T10:50:43;4.13;;;2.28;;
28988;SDS011;16089;59.952;10.818;2022-07-22T10:53:11;3.80;;;2.28;;
28988;SDS011;16089;59.952;10.818;2022-07-22T10:55:38;4.55;;;2.72;;
28988;SDS011;16089;59.952;10.818;2022-07-22T11:00:53;4.40;;;2.72;;
28988;SDS011;16089;59.952;10.818;2022-07-22T11:03:23;3.88;;;2.50;;
28988;SDS011;16089;59.952;10.818;2022-07-22T11:05:49;3.83;;;2.70;;
28988;SDS011;16089;59.952;10.818;2022-07-22T11:08:16;4.88;;;2.60;;
28988;SDS011;16089;59.952;10.818;2022-07-22T11:10:46;4.25;;;2.95;;
28988;SDS011;16089;59.952;10.818;2022-07-22T11:13:12;4.60;;;2.83;;
28988;SDS011;16089;59.952;10.818;2022-07-22T11:15:39;6.38;;;2.72;;
28988;SDS011;16089;59.952;10.818;2022-07-22T11:18:06;5.68;;;2.85;;
28988;SDS011;16089;59.952;10.818;2022-07-22T11:20:33;4.88;;;2.78;;
28988;SDS011;16089;59.952;10.818;2022-07-22T11:22:59;4.57;;;2.47;;
28988;SDS011;16089;59.952;10.818;2022-07-22T11:25:25;3.38;;;2.30;;
28988;SDS011;16089;59.952;10.818;2022-07-22T11:27:52;5.00;;;2.85;;
28988;SDS011;16089;59.952;10.818;2022-07-22T11:30:20;3.47;;;2.38;;
28988;SDS011;16089;59.952;10.818;2022-07-22T11:32:46;4.45;;;2.47;;
28988;SDS011;16089;59.952;10.818;2022-07-22T11:35:15;3.97;;;2.30;;
28988;SDS011;16089;59.952;10.818;2022-07-22T11:37:41;3.47;;;2.40;;
28988;SDS011;16089;59.952;10.818;2022-07-22T11:40:08;4.07;;;2.50;;
28988;SDS011;16089;59.952;10.818;2022-07-22T11:42:35;3.65;;;2.30;;
28988;SDS011;16089;59.952;10.818;2022-07-22T11:45:02;6.47;;;2.30;;
28988;SDS011;16089;59.952;10.818;2022-07-22T11:47:28;2.50;;;1.90;;
28988;SDS011;16089;59.952;10.818;2022-07-22T11:49:54;3.50;;;2.17;;
28988;SDS011;16089;59.952;10.818;2022-07-22T11:52:22;3.45;;;2.10;;
28988;SDS011;16089;59.952;10.818;2022-07-22T11:54:48;3.33;;;2.00;;
28988;SDS011;16089;59.952;10.818;2022-07-22T11:57:15;4.38;;;2.45;;
28988;SDS011;16089;59.952;10.818;2022-07-22T11:59:41;2.92;;;1.73;;
28988;SDS011;16089;59.952;10.818;2022-07-22T12:02:08;4.80;;;2.05;;
28988;SDS011;16089;59.952;10.818;2022-07-22T12:04:37;3.55;;;2.22;;
28988;SDS011;16089;59.952;10.818;2022-07-22T12:07:04;3.55;;;1.95;;
28988;SDS011;16089;59.952;10.818;2022-07-22T12:09:33;4.70;;;2.40;;
28988;SDS011;16089;59.952;10.818;2022-07-22T12:12:00;4.15;;;2.35;;
28988;SDS011;16089;59.952;10.818;2022-07-22T12:14:28;3.42;;;2.00;;
28988;SDS011;16089;59.952;10.818;2022-07-22T12:16:55;3.75;;;2.20;;
28988;SDS011;16089;59.952;10.818;2022-07-22T12:19:22;6.13;;;2.28;;
28988;SDS011;16089;59.952;10.818;2022-07-22T12:21:50;3.20;;;2.10;;
28988;SDS011;16089;59.952;10.818;2022-07-22T12:24:17;4.80;;;2.30;;
28988;SDS011;16089;59.952;10.818;2022-07-22T12:26:52;3.17;;;1.90;;
28988;SDS011;16089;59.952;10.818;2022-07-22T12:29:20;2.60;;;1.90;;
28988;SDS011;16089;59.952;10.818;2022-07-22T12:31:47;4.38;;;2.20;;
28988;SDS011;16089;59.952;10.818;2022-07-22T12:34:14;3.90;;;2.20;;
28988;SDS011;16089;59.952;10.818;2022-07-22T12:36:45;3.20;;;1.83;;
28988;SDS011;16089;59.952;10.818;2022-07-22T12:39:15;3.60;;;2.15;;
28988;SDS011;16089;59.952;10.818;2022-07-22T12:41:45;3.72;;;1.88;;
28988;SDS011;16089;59.952;10.818;2022-07-22T12:44:16;2.97;;;2.08;;
28988;SDS011;16089;59.952;10.818;2022-07-22T12:46:45;3.25;;;2.22;;
28988;SDS011;16089;59.952;10.818;2022-07-22T12:49:12;3.72;;;2.30;;
28988;SDS011;16089;59.952;10.818;2022-07-22T12:51:38;8.32;;;4.70;;
28988;SDS011;16089;59.952;10.818;2022-07-22T12:54:04;3.72;;;2.17;;
28988;SDS011;16089;59.952;10.818;2022-07-22T12:56:31;3.72;;;2.13;;
28988;SDS011;16089;59.952;10.818;2022-07-22T12:58:58;3.13;;;2.03;;
28988;SDS011;16089;59.952;10.818;2022-07-22T13:01:26;4.00;;;2.13;;
28988;SDS011;16089;59.952;10.818;2022-07-22T13:03:52;3.50;;;2.10;;
28988;SDS011;16089;59.952;10.818;2022-07-22T13:06:20;5.72;;;2.40;;
28988;SDS011;16089;59.952;10.818;2022-07-22T13:08:47;3.28;;;2.10;;
28988;SDS011;16089;59.952;10.818;2022-07-22T13:11:13;4.05;;;2.10;;
28988;SDS011;16089;59.952;10.818;2022-07-22T13:13:40;3.53;;;2.17;;
28988;SDS011;16089;59.952;10.818;2022-07-22T13:16:07;3.28;;;2.17;;
28988;SDS011;16089;59.952;10.818;2022-07-22T13:18:35;4.47;;;1.90;;
28988;SDS011;16089;59.952;10.818;2022-07-22T13:21:01;3.90;;;2.10;;
28988;SDS011;16089;59.952;10.818;2022-07-22T13:23:28;4.90;;;2.10;;
28988;SDS011;16089;59.952;10.818;2022-07-22T13:25:54;4.85;;;2.20;;
28988;SDS011;16089;59.952;10.818;2022-07-22T13:28:21;3.45;;;1.98;;
28988;SDS011;16089;59.952;10.818;2022-07-22T13:30:47;3.13;;;1.90;;
28988;SDS011;16089;59.952;10.818;2022-07-22T13:33:14;3.83;;;2.10;;
28988;SDS011;16089;59.952;10.818;2022-07-22T13:35:42;4.57;;;2.20;;
28988;SDS011;16089;59.952;10.818;2022-07-22T13:38:09;4.90;;;2.00;;
28988;SDS011;16089;59.952;10.818;2022-07-22T13:40:35;3.53;;;2.10;;
28988;SDS011;16089;59.952;10.818;2022-07-22T13:43:01;3.33;;;2.20;;
28988;SDS011;16089;59.952;10.818;2022-07-22T13:45:28;5.15;;;3.42;;
28988;SDS011;16089;59.952;10.818;2022-07-22T13:47:54;5.15;;;2.60;;
28988;SDS011;16089;59.952;10.818;2022-07-22T13:50:21;4.65;;;2.80;;
28988;SDS011;16089;59.952;10.818;2022-07-22T13:52:48;4.93;;;2.88;;
28988;SDS011;16089;59.952;10.818;2022-07-22T13:55:15;4.63;;;2.80;;
28988;SDS011;16089;59.952;10.818;2022-07-22T13:57:41;5.30;;;2.88;;
28988;SDS011;16089;59.952;10.818;2022-07-22T14:00:08;7.65;;;4.50;;
28988;SDS011;16089;59.952;10.818;2022-07-22T14:02:35;6.85;;;3.00;;
28988;SDS011;16089;59.952;10.818;2022-07-22T14:05:03;4.82;;;2.78;;
28988;SDS011;16089;59.952;10.818;2022-07-22T14:07:29;4.07;;;2.83;;
28988;SDS011;16089;59.952;10.818;2022-07-22T14:09:57;4.00;;;2.75;;
28988;SDS011;16089;59.952;10.818;2022-07-22T14:12:23;5.88;;;3.03;;
28988;SDS011;16089;59.952;10.818;2022-07-22T14:14:49;5.43;;;3.30;;
28988;SDS011;16089;59.952;10.818;2022-07-22T14:17:16;6.15;;;3.00;;
28988;SDS011;16089;59.952;10.818;2022-07-22T14:19:42;5.90;;;3.00;;
28988;SDS011;16089;59.952;10.818;2022-07-22T14:22:09;4.10;;;3.13;;
28988;SDS011;16089;59.952;10.818;2022-07-22T14:24:35;4.15;;;3.08;;
28988;SDS011;16089;59.952;10.818;2022-07-22T14:27:03;5.60;;;2.97;;
28988;SDS011;16089;59.952;10.818;2022-07-22T14:29:29;4.93;;;2.85;;
28988;SDS011;16089;59.952;10.818;2022-07-22T14:31:56;4.90;;;3.13;;
28988;SDS011;16089;59.952;10.818;2022-07-22T14:34:22;5.93;;;3.10;;
28988;SDS011;16089;59.952;10.818;2022-07-22T14:36:48;4.53;;;2.85;;